sensor_id;sensor_type;location;lat;lon;timestamp;P1;durP1;ratioP1;P2;durP2;ratioP2
22557;SDS011;11445;53.816;8.902;2022-11-15T00:02:14;48.67;;;24.70;;
22557;SDS011;11445;53.816;8.902;2022-11-15T00:04:41;48.90;;;23.90;;
22557;SDS011;11445;53.816;8.902;2022-11-15T00:07:08;47.20;;;24.55;;
22557;SDS011;11445;53.816;8.902;2022-11-15T00:09:35;43.92;;;23.88;;
22557;SDS011;11445;53.816;8.902;2022-11-15T00:12:04;49.60;;;23.60;;
22557;SDS011;11445;53.816;8.902;2022-11-15T00:14:31;46.95;;;23.88;;
22557;SDS011;11445;53.816;8.902;2022-11-15T00:16:58;42.58;;;22.70;;
22557;SDS011;11445;53.816;8.902;2022-11-15T00:19:25;41.85;;;22.40;;
22557;SDS011;11445;53.816;8.902;2022-11-15T00:21:52;41.60;;;23.25;;
22557;SDS011;11445;53.816;8.902;2022-11-15T00:24:19;42.22;;;22.48;;
22557;SDS011;11445;53.816;8.902;2022-11-15T00:26:46;43.65;;;23.27;;
22557;SDS011;11445;53.816;8.902;2022-11-15T00:29:15;45.58;;;23.15;;
22557;SDS011;11445;53.816;8.902;2022-11-15T00:31:42;42.55;;;21.88;;
22557;SDS011;11445;53.816;8.902;2022-11-15T00:34:09;42.80;;;23.85;;
22557;SDS011;11445;53.816;8.902;2022-11-15T00:36:36;44.15;;;23.38;;
22557;SDS011;11445;53.816;8.902;2022-11-15T00:39:03;43.03;;;22.38;;
22557;SDS011;11445;53.816;8.902;2022-11-15T00:41:31;47.78;;;24.67;;
22557;SDS011;11445;53.816;8.902;2022-11-15T00:43:58;42.30;;;24.13;;
22557;SDS011;11445;53.816;8.902;2022-11-15T00:46:26;42.25;;;23.98;;
22557;SDS011;11445;53.816;8.902;2022-11-15T00:48:53;48.28;;;24.75;;
22557;SDS011;11445;53.816;8.902;2022-11-15T00:51:20;43.58;;;22.83;;
22557;SDS011;11445;53.816;8.902;2022-11-15T00:53:48;46.08;;;24.15;;
22557;SDS011;11445;53.816;8.902;2022-11-15T00:56:15;44.50;;;24.15;;
22557;SDS011;11445;53.816;8.902;2022-11-15T00:58:42;49.15;;;24.90;;
22557;SDS011;11445;53.816;8.902;2022-11-15T01:01:09;47.17;;;24.48;;
22557;SDS011;11445;53.816;8.902;2022-11-15T01:03:40;40.75;;;22.08;;
22557;SDS011;11445;53.816;8.902;2022-11-15T01:06:08;49.03;;;23.50;;
22557;SDS011;11445;53.816;8.902;2022-11-15T01:08:37;42.35;;;23.45;;
22557;SDS011;11445;53.816;8.902;2022-11-15T01:11:05;44.70;;;24.30;;
22557;SDS011;11445;53.816;8.902;2022-11-15T01:13:34;48.60;;;24.98;;
22557;SDS011;11445;53.816;8.902;2022-11-15T01:16:07;50.88;;;24.95;;
22557;SDS011;11445;53.816;8.902;2022-11-15T01:18:35;46.80;;;24.00;;
22557;SDS011;11445;53.816;8.902;2022-11-15T01:21:07;42.70;;;22.10;;
22557;SDS011;11445;53.816;8.902;2022-11-15T01:26:03;45.72;;;23.08;;
22557;SDS011;11445;53.816;8.902;2022-11-15T01:28:32;42.83;;;22.80;;
22557;SDS011;11445;53.816;8.902;2022-11-15T01:31:01;46.88;;;23.65;;
22557;SDS011;11445;53.816;8.902;2022-11-15T01:33:29;39.20;;;21.30;;
22557;SDS011;11445;53.816;8.902;2022-11-15T01:35:57;48.65;;;22.75;;
22557;SDS011;11445;53.816;8.902;2022-11-15T01:38:25;40.00;;;20.95;;
22557;SDS011;11445;53.816;8.902;2022-11-15T01:40:52;44.47;;;20.73;;
22557;SDS011;11445;53.816;8.902;2022-11-15T01:43:23;37.22;;;20.67;;
22557;SDS011;11445;53.816;8.902;2022-11-15T01:45:52;39.53;;;20.98;;
22557;SDS011;11445;53.816;8.902;2022-11-15T01:48:23;40.40;;;21.70;;
22557;SDS011;11445;53.816;8.902;2022-11-15T01:50:54;43.00;;;22.00;;
22557;SDS011;11445;53.816;8.902;2022-11-15T01:53:22;43.45;;;22.08;;
22557;SDS011;11445;53.816;8.902;2022-11-15T01:55:53;39.25;;;21.45;;
22557;SDS011;11445;53.816;8.902;2022-11-15T01:58:21;44.15;;;22.05;;
22557;SDS011;11445;53.816;8.902;2022-11-15T02:00:48;40.70;;;21.67;;
22557;SDS011;11445;53.816;8.902;2022-11-15T02:03:16;41.55;;;20.88;;
22557;SDS011;11445;53.816;8.902;2022-11-15T02:05:43;40.95;;;21.45;;
22557;SDS011;11445;53.816;8.902;2022-11-15T02:08:10;43.55;;;22.25;;
22557;SDS011;11445;53.816;8.902;2022-11-15T02:10:46;44.88;;;23.25;;
22557;SDS011;11445;53.816;8.902;2022-11-15T02:13:13;39.97;;;21.38;;
22557;SDS011;11445;53.816;8.902;2022-11-15T02:15:44;46.22;;;22.63;;
22557;SDS011;11445;53.816;8.902;2022-11-15T02:18:18;42.67;;;21.85;;
22557;SDS011;11445;53.816;8.902;2022-11-15T02:23:52;45.78;;;21.17;;
22557;SDS011;11445;53.816;8.902;2022-11-15T02:30:02;35.72;;;20.33;;
22557;SDS011;11445;53.816;8.902;2022-11-15T02:32:44;36.95;;;20.95;;
22557;SDS011;11445;53.816;8.902;2022-11-15T02:35:18;39.85;;;21.20;;
22557;SDS011;11445;53.816;8.902;2022-11-15T02:37:53;47.78;;;22.05;;
22557;SDS011;11445;53.816;8.902;2022-11-15T02:40:26;38.78;;;20.92;;
22557;SDS011;11445;53.816;8.902;2022-11-15T02:43:01;41.33;;;20.65;;
22557;SDS011;11445;53.816;8.902;2022-11-15T02:45:53;39.58;;;20.75;;
22557;SDS011;11445;53.816;8.902;2022-11-15T02:48:28;38.80;;;19.73;;
22557;SDS011;11445;53.816;8.902;2022-11-15T02:50:57;39.58;;;20.67;;
22557;SDS011;11445;53.816;8.902;2022-11-15T02:53:25;38.42;;;20.20;;
22557;SDS011;11445;53.816;8.902;2022-11-15T02:55:53;36.78;;;19.27;;
22557;SDS011;11445;53.816;8.902;2022-11-15T03:01:22;34.70;;;19.58;;
22557;SDS011;11445;53.816;8.902;2022-11-15T03:04:02;38.42;;;20.65;;
22557;SDS011;11445;53.816;8.902;2022-11-15T03:06:41;37.72;;;20.83;;
22557;SDS011;11445;53.816;8.902;2022-11-15T03:09:13;37.22;;;20.00;;
22557;SDS011;11445;53.816;8.902;2022-11-15T03:11:50;36.40;;;20.27;;
22557;SDS011;11445;53.816;8.902;2022-11-15T03:14:23;38.75;;;19.65;;
22557;SDS011;11445;53.816;8.902;2022-11-15T03:16:58;36.15;;;20.02;;
22557;SDS011;11445;53.816;8.902;2022-11-15T03:19:35;37.75;;;18.75;;
22557;SDS011;11445;53.816;8.902;2022-11-15T03:22:10;35.90;;;19.70;;
22557;SDS011;11445;53.816;8.902;2022-11-15T03:24:42;32.57;;;18.93;;
22557;SDS011;11445;53.816;8.902;2022-11-15T03:27:12;32.90;;;19.10;;
22557;SDS011;11445;53.816;8.902;2022-11-15T03:29:44;36.22;;;19.55;;
22557;SDS011;11445;53.816;8.902;2022-11-15T03:32:16;35.97;;;18.98;;
22557;SDS011;11445;53.816;8.902;2022-11-15T03:34:49;36.75;;;19.45;;
22557;SDS011;11445;53.816;8.902;2022-11-15T03:37:20;34.58;;;18.73;;
22557;SDS011;11445;53.816;8.902;2022-11-15T03:39:51;33.85;;;18.52;;
22557;SDS011;11445;53.816;8.902;2022-11-15T03:42:20;37.60;;;19.60;;
22557;SDS011;11445;53.816;8.902;2022-11-15T03:44:54;38.38;;;20.15;;
22557;SDS011;11445;53.816;8.902;2022-11-15T03:47:30;41.45;;;20.08;;
22557;SDS011;11445;53.816;8.902;2022-11-15T03:50:01;33.97;;;19.05;;
22557;SDS011;11445;53.816;8.902;2022-11-15T03:52:33;37.00;;;20.42;;
22557;SDS011;11445;53.816;8.902;2022-11-15T03:55:02;41.70;;;20.55;;
22557;SDS011;11445;53.816;8.902;2022-11-15T03:57:31;37.35;;;19.50;;
22557;SDS011;11445;53.816;8.902;2022-11-15T03:59:58;34.03;;;19.58;;
22557;SDS011;11445;53.816;8.902;2022-11-15T04:02:25;36.63;;;19.83;;
22557;SDS011;11445;53.816;8.902;2022-11-15T04:04:54;40.17;;;20.35;;
22557;SDS011;11445;53.816;8.902;2022-11-15T04:07:21;38.55;;;20.05;;
22557;SDS011;11445;53.816;8.902;2022-11-15T04:09:48;32.75;;;17.98;;
22557;SDS011;11445;53.816;8.902;2022-11-15T04:12:31;37.05;;;19.00;;
22557;SDS011;11445;53.816;8.902;2022-11-15T04:15:00;35.85;;;19.05;;
22557;SDS011;11445;53.816;8.902;2022-11-15T04:17:35;30.83;;;18.40;;
22557;SDS011;11445;53.816;8.902;2022-11-15T04:20:06;35.03;;;18.90;;
22557;SDS011;11445;53.816;8.902;2022-11-15T04:22:53;39.08;;;19.42;;
22557;SDS011;11445;53.816;8.902;2022-11-15T04:25:34;35.67;;;19.98;;
22557;SDS011;11445;53.816;8.902;2022-11-15T04:28:02;42.08;;;20.50;;
22557;SDS011;11445;53.816;8.902;2022-11-15T04:30:29;36.05;;;19.67;;
22557;SDS011;11445;53.816;8.902;2022-11-15T04:32:56;38.05;;;20.00;;
22557;SDS011;11445;53.816;8.902;2022-11-15T04:35:24;41.75;;;20.50;;
22557;SDS011;11445;53.816;8.902;2022-11-15T04:37:51;39.20;;;19.65;;
22557;SDS011;11445;53.816;8.902;2022-11-15T04:40:18;42.00;;;20.88;;
22557;SDS011;11445;53.816;8.902;2022-11-15T04:42:45;40.65;;;19.85;;
22557;SDS011;11445;53.816;8.902;2022-11-15T04:45:12;38.58;;;20.33;;
22557;SDS011;11445;53.816;8.902;2022-11-15T04:47:40;40.97;;;20.90;;
22557;SDS011;11445;53.816;8.902;2022-11-15T04:50:10;37.55;;;20.25;;
22557;SDS011;11445;53.816;8.902;2022-11-15T04:52:39;37.83;;;19.58;;
22557;SDS011;11445;53.816;8.902;2022-11-15T04:55:07;36.90;;;20.42;;
22557;SDS011;11445;53.816;8.902;2022-11-15T04:57:35;40.17;;;20.38;;
22557;SDS011;11445;53.816;8.902;2022-11-15T05:00:03;37.53;;;19.42;;
22557;SDS011;11445;53.816;8.902;2022-11-15T05:02:31;39.42;;;19.65;;
22557;SDS011;11445;53.816;8.902;2022-11-15T05:05:12;40.88;;;20.63;;
22557;SDS011;11445;53.816;8.902;2022-11-15T05:07:40;42.67;;;20.20;;
22557;SDS011;11445;53.816;8.902;2022-11-15T05:10:08;40.40;;;19.98;;
22557;SDS011;11445;53.816;8.902;2022-11-15T05:12:35;43.13;;;21.05;;
22557;SDS011;11445;53.816;8.902;2022-11-15T05:15:03;40.60;;;20.05;;
22557;SDS011;11445;53.816;8.902;2022-11-15T05:17:30;39.92;;;20.55;;
22557;SDS011;11445;53.816;8.902;2022-11-15T05:19:57;41.60;;;21.25;;
22557;SDS011;11445;53.816;8.902;2022-11-15T05:22:24;41.95;;;20.90;;
22557;SDS011;11445;53.816;8.902;2022-11-15T05:24:52;41.88;;;21.17;;
22557;SDS011;11445;53.816;8.902;2022-11-15T05:27:19;43.83;;;21.90;;
22557;SDS011;11445;53.816;8.902;2022-11-15T05:29:46;37.97;;;19.23;;
22557;SDS011;11445;53.816;8.902;2022-11-15T05:32:13;38.80;;;20.60;;
22557;SDS011;11445;53.816;8.902;2022-11-15T05:34:41;42.63;;;21.10;;
22557;SDS011;11445;53.816;8.902;2022-11-15T05:37:09;42.00;;;21.60;;
22557;SDS011;11445;53.816;8.902;2022-11-15T05:39:36;38.40;;;20.55;;
22557;SDS011;11445;53.816;8.902;2022-11-15T05:42:06;38.42;;;19.58;;
22557;SDS011;11445;53.816;8.902;2022-11-15T05:47:05;34.00;;;18.77;;
22557;SDS011;11445;53.816;8.902;2022-11-15T05:49:35;41.80;;;20.05;;
22557;SDS011;11445;53.816;8.902;2022-11-15T05:52:07;39.38;;;20.60;;
22557;SDS011;11445;53.816;8.902;2022-11-15T05:54:39;38.65;;;20.90;;
22557;SDS011;11445;53.816;8.902;2022-11-15T05:57:08;37.13;;;20.13;;
22557;SDS011;11445;53.816;8.902;2022-11-15T05:59:35;39.05;;;20.38;;
22557;SDS011;11445;53.816;8.902;2022-11-15T06:02:03;43.63;;;20.48;;
22557;SDS011;11445;53.816;8.902;2022-11-15T06:04:30;41.42;;;21.13;;
22557;SDS011;11445;53.816;8.902;2022-11-15T06:06:57;34.90;;;19.55;;
22557;SDS011;11445;53.816;8.902;2022-11-15T06:09:25;38.03;;;20.38;;
22557;SDS011;11445;53.816;8.902;2022-11-15T06:11:52;42.20;;;20.60;;
22557;SDS011;11445;53.816;8.902;2022-11-15T06:14:20;42.25;;;21.20;;
22557;SDS011;11445;53.816;8.902;2022-11-15T06:16:47;39.67;;;21.02;;
22557;SDS011;11445;53.816;8.902;2022-11-15T06:19:14;42.40;;;20.58;;
22557;SDS011;11445;53.816;8.902;2022-11-15T06:21:41;35.60;;;19.33;;
22557;SDS011;11445;53.816;8.902;2022-11-15T06:24:08;36.50;;;20.05;;
22557;SDS011;11445;53.816;8.902;2022-11-15T06:26:35;36.10;;;19.05;;
22557;SDS011;11445;53.816;8.902;2022-11-15T06:29:02;36.55;;;19.45;;
22557;SDS011;11445;53.816;8.902;2022-11-15T06:31:32;41.78;;;20.50;;
22557;SDS011;11445;53.816;8.902;2022-11-15T06:33:59;38.15;;;19.70;;
22557;SDS011;11445;53.816;8.902;2022-11-15T06:36:27;42.42;;;16.88;;
22557;SDS011;11445;53.816;8.902;2022-11-15T06:38:54;36.88;;;20.85;;
22557;SDS011;11445;53.816;8.902;2022-11-15T06:41:21;41.35;;;20.75;;
22557;SDS011;11445;53.816;8.902;2022-11-15T06:43:48;38.70;;;20.30;;
22557;SDS011;11445;53.816;8.902;2022-11-15T06:46:15;40.17;;;19.85;;
22557;SDS011;11445;53.816;8.902;2022-11-15T06:48:43;35.22;;;18.15;;
22557;SDS011;11445;53.816;8.902;2022-11-15T06:51:10;32.70;;;18.88;;
22557;SDS011;11445;53.816;8.902;2022-11-15T06:53:37;35.28;;;19.08;;
22557;SDS011;11445;53.816;8.902;2022-11-15T06:56:05;33.47;;;18.80;;
22557;SDS011;11445;53.816;8.902;2022-11-15T06:58:34;33.88;;;18.80;;
22557;SDS011;11445;53.816;8.902;2022-11-15T07:01:02;37.17;;;20.02;;
22557;SDS011;11445;53.816;8.902;2022-11-15T07:03:30;36.90;;;19.45;;
22557;SDS011;11445;53.816;8.902;2022-11-15T07:05:59;34.45;;;19.42;;
22557;SDS011;11445;53.816;8.902;2022-11-15T07:08:27;37.13;;;19.95;;
22557;SDS011;11445;53.816;8.902;2022-11-15T07:10:54;38.35;;;19.85;;
22557;SDS011;11445;53.816;8.902;2022-11-15T07:13:24;35.10;;;18.35;;
22557;SDS011;11445;53.816;8.902;2022-11-15T07:15:51;34.05;;;19.70;;
22557;SDS011;11445;53.816;8.902;2022-11-15T07:18:19;35.85;;;20.08;;
22557;SDS011;11445;53.816;8.902;2022-11-15T07:20:46;34.00;;;18.33;;
22557;SDS011;11445;53.816;8.902;2022-11-15T07:23:14;32.92;;;18.73;;
22557;SDS011;11445;53.816;8.902;2022-11-15T07:25:41;31.80;;;18.80;;
22557;SDS011;11445;53.816;8.902;2022-11-15T07:28:08;42.20;;;20.08;;
22557;SDS011;11445;53.816;8.902;2022-11-15T07:30:35;36.38;;;19.65;;
22557;SDS011;11445;53.816;8.902;2022-11-15T07:33:03;35.35;;;19.70;;
22557;SDS011;11445;53.816;8.902;2022-11-15T07:35:30;38.65;;;19.95;;
22557;SDS011;11445;53.816;8.902;2022-11-15T07:37:57;35.03;;;19.27;;
22557;SDS011;11445;53.816;8.902;2022-11-15T07:40:28;33.35;;;18.75;;
22557;SDS011;11445;53.816;8.902;2022-11-15T07:42:58;33.28;;;18.65;;
22557;SDS011;11445;53.816;8.902;2022-11-15T07:45:26;40.92;;;19.90;;
22557;SDS011;11445;53.816;8.902;2022-11-15T07:47:53;38.63;;;19.48;;
22557;SDS011;11445;53.816;8.902;2022-11-15T07:50:21;45.33;;;20.63;;
22557;SDS011;11445;53.816;8.902;2022-11-15T07:52:52;37.63;;;20.15;;
22557;SDS011;11445;53.816;8.902;2022-11-15T07:55:20;32.63;;;18.67;;
22557;SDS011;11445;53.816;8.902;2022-11-15T07:57:49;35.78;;;19.10;;
22557;SDS011;11445;53.816;8.902;2022-11-15T08:00:16;37.95;;;19.08;;
22557;SDS011;11445;53.816;8.902;2022-11-15T08:02:44;33.40;;;19.10;;
22557;SDS011;11445;53.816;8.902;2022-11-15T08:05:11;35.35;;;18.10;;
22557;SDS011;11445;53.816;8.902;2022-11-15T08:07:38;35.50;;;19.75;;
22557;SDS011;11445;53.816;8.902;2022-11-15T08:10:06;34.53;;;17.15;;
22557;SDS011;11445;53.816;8.902;2022-11-15T08:12:34;38.40;;;19.60;;
22557;SDS011;11445;53.816;8.902;2022-11-15T08:15:03;31.50;;;18.50;;
22557;SDS011;11445;53.816;8.902;2022-11-15T08:17:30;35.80;;;19.00;;
22557;SDS011;11445;53.816;8.902;2022-11-15T08:19:58;35.22;;;18.77;;
22557;SDS011;11445;53.816;8.902;2022-11-15T08:22:26;41.00;;;19.05;;
22557;SDS011;11445;53.816;8.902;2022-11-15T08:24:52;36.55;;;18.95;;
22557;SDS011;11445;53.816;8.902;2022-11-15T08:27:19;38.83;;;20.10;;
22557;SDS011;11445;53.816;8.902;2022-11-15T08:29:47;33.45;;;18.75;;
22557;SDS011;11445;53.816;8.902;2022-11-15T08:32:16;31.52;;;17.13;;
22557;SDS011;11445;53.816;8.902;2022-11-15T08:34:43;36.53;;;18.40;;
22557;SDS011;11445;53.816;8.902;2022-11-15T08:37:10;33.85;;;18.38;;
22557;SDS011;11445;53.816;8.902;2022-11-15T08:39:37;30.58;;;16.13;;
22557;SDS011;11445;53.816;8.902;2022-11-15T08:42:04;31.92;;;17.90;;
22557;SDS011;11445;53.816;8.902;2022-11-15T08:44:31;38.65;;;19.35;;
22557;SDS011;11445;53.816;8.902;2022-11-15T08:46:58;30.95;;;17.55;;
22557;SDS011;11445;53.816;8.902;2022-11-15T08:49:27;32.83;;;17.02;;
22557;SDS011;11445;53.816;8.902;2022-11-15T08:51:54;33.88;;;17.75;;
22557;SDS011;11445;53.816;8.902;2022-11-15T08:54:21;32.95;;;18.13;;
22557;SDS011;11445;53.816;8.902;2022-11-15T08:56:48;35.08;;;18.35;;
22557;SDS011;11445;53.816;8.902;2022-11-15T08:59:15;39.30;;;18.02;;
22557;SDS011;11445;53.816;8.902;2022-11-15T09:01:42;36.83;;;17.92;;
22557;SDS011;11445;53.816;8.902;2022-11-15T09:04:09;33.63;;;18.55;;
22557;SDS011;11445;53.816;8.902;2022-11-15T09:06:37;30.30;;;17.52;;
22557;SDS011;11445;53.816;8.902;2022-11-15T09:09:04;32.50;;;17.42;;
22557;SDS011;11445;53.816;8.902;2022-11-15T09:11:31;31.20;;;18.13;;
22557;SDS011;11445;53.816;8.902;2022-11-15T09:13:58;32.80;;;18.80;;
22557;SDS011;11445;53.816;8.902;2022-11-15T09:16:25;31.92;;;18.20;;
22557;SDS011;11445;53.816;8.902;2022-11-15T09:18:53;32.10;;;17.55;;
22557;SDS011;11445;53.816;8.902;2022-11-15T09:21:20;32.55;;;17.60;;
22557;SDS011;11445;53.816;8.902;2022-11-15T09:23:49;32.13;;;17.80;;
22557;SDS011;11445;53.816;8.902;2022-11-15T09:26:16;31.05;;;17.50;;
22557;SDS011;11445;53.816;8.902;2022-11-15T09:28:43;30.65;;;17.02;;
22557;SDS011;11445;53.816;8.902;2022-11-15T09:31:10;34.50;;;16.85;;
22557;SDS011;11445;53.816;8.902;2022-11-15T09:33:37;36.35;;;18.13;;
22557;SDS011;11445;53.816;8.902;2022-11-15T09:36:05;34.00;;;18.30;;
22557;SDS011;11445;53.816;8.902;2022-11-15T09:38:34;32.45;;;16.83;;
22557;SDS011;11445;53.816;8.902;2022-11-15T09:41:17;34.42;;;18.92;;
22557;SDS011;11445;53.816;8.902;2022-11-15T09:44:07;29.25;;;17.67;;
22557;SDS011;11445;53.816;8.902;2022-11-15T09:46:51;27.92;;;16.38;;
22557;SDS011;11445;53.816;8.902;2022-11-15T09:49:24;32.05;;;16.55;;
22557;SDS011;11445;53.816;8.902;2022-11-15T09:51:52;33.13;;;16.63;;
22557;SDS011;11445;53.816;8.902;2022-11-15T09:54:23;29.75;;;16.25;;
22557;SDS011;11445;53.816;8.902;2022-11-15T09:57:01;30.10;;;17.08;;
22557;SDS011;11445;53.816;8.902;2022-11-15T10:02:35;29.25;;;15.73;;
22557;SDS011;11445;53.816;8.902;2022-11-15T10:05:15;24.50;;;15.40;;
22557;SDS011;11445;53.816;8.902;2022-11-15T10:07:46;29.73;;;16.20;;
22557;SDS011;11445;53.816;8.902;2022-11-15T10:10:22;23.92;;;15.95;;
22557;SDS011;11445;53.816;8.902;2022-11-15T10:12:53;28.30;;;17.00;;
22557;SDS011;11445;53.816;8.902;2022-11-15T10:15:20;29.95;;;17.15;;
22557;SDS011;11445;53.816;8.902;2022-11-15T10:20:39;31.95;;;16.10;;
22557;SDS011;11445;53.816;8.902;2022-11-15T10:23:13;32.00;;;17.27;;
22557;SDS011;11445;53.816;8.902;2022-11-15T10:25:42;25.77;;;15.55;;
22557;SDS011;11445;53.816;8.902;2022-11-15T10:28:11;27.85;;;16.08;;
22557;SDS011;11445;53.816;8.902;2022-11-15T10:30:49;31.08;;;16.85;;
22557;SDS011;11445;53.816;8.902;2022-11-15T10:33:25;26.65;;;15.93;;
22557;SDS011;11445;53.816;8.902;2022-11-15T10:41:20;25.27;;;15.38;;
22557;SDS011;11445;53.816;8.902;2022-11-15T10:44:02;25.33;;;15.65;;
22557;SDS011;11445;53.816;8.902;2022-11-15T10:46:36;28.17;;;16.67;;
22557;SDS011;11445;53.816;8.902;2022-11-15T10:49:11;31.20;;;16.80;;
22557;SDS011;11445;53.816;8.902;2022-11-15T10:51:40;26.85;;;15.50;;
22557;SDS011;11445;53.816;8.902;2022-11-15T10:54:10;26.50;;;16.10;;
22557;SDS011;11445;53.816;8.902;2022-11-15T10:56:41;29.05;;;16.55;;
22557;SDS011;11445;53.816;8.902;2022-11-15T10:59:15;23.17;;;15.10;;
22557;SDS011;11445;53.816;8.902;2022-11-15T11:01:50;24.63;;;15.02;;
22557;SDS011;11445;53.816;8.902;2022-11-15T11:04:17;28.73;;;16.38;;
22557;SDS011;11445;53.816;8.902;2022-11-15T11:06:48;25.83;;;15.90;;
22557;SDS011;11445;53.816;8.902;2022-11-15T11:09:22;26.48;;;16.05;;
22557;SDS011;11445;53.816;8.902;2022-11-15T11:11:54;28.48;;;16.42;;
22557;SDS011;11445;53.816;8.902;2022-11-15T11:14:23;28.00;;;15.98;;
22557;SDS011;11445;53.816;8.902;2022-11-15T11:16:54;26.35;;;15.93;;
22557;SDS011;11445;53.816;8.902;2022-11-15T11:19:39;27.00;;;15.90;;
22557;SDS011;11445;53.816;8.902;2022-11-15T11:22:19;26.42;;;15.93;;
22557;SDS011;11445;53.816;8.902;2022-11-15T11:24:53;29.65;;;15.95;;
22557;SDS011;11445;53.816;8.902;2022-11-15T11:27:42;24.88;;;14.88;;
22557;SDS011;11445;53.816;8.902;2022-11-15T11:30:23;25.27;;;15.40;;
22557;SDS011;11445;53.816;8.902;2022-11-15T11:33:02;25.00;;;16.40;;
22557;SDS011;11445;53.816;8.902;2022-11-15T11:35:38;25.13;;;14.68;;
22557;SDS011;11445;53.816;8.902;2022-11-15T11:38:19;25.67;;;15.30;;
22557;SDS011;11445;53.816;8.902;2022-11-15T11:41:05;21.88;;;13.70;;
22557;SDS011;11445;53.816;8.902;2022-11-15T11:43:41;25.63;;;14.50;;
22557;SDS011;11445;53.816;8.902;2022-11-15T11:46:31;25.27;;;15.52;;
22557;SDS011;11445;53.816;8.902;2022-11-15T11:49:12;26.55;;;14.95;;
22557;SDS011;11445;53.816;8.902;2022-11-15T11:51:47;24.98;;;15.13;;
22557;SDS011;11445;53.816;8.902;2022-11-15T11:54:20;26.13;;;14.57;;
22557;SDS011;11445;53.816;8.902;2022-11-15T11:56:52;20.95;;;14.05;;
22557;SDS011;11445;53.816;8.902;2022-11-15T11:59:25;27.08;;;15.20;;
22557;SDS011;11445;53.816;8.902;2022-11-15T12:02:02;21.38;;;14.18;;
22557;SDS011;11445;53.816;8.902;2022-11-15T12:04:39;23.00;;;13.93;;
22557;SDS011;11445;53.816;8.902;2022-11-15T12:07:12;22.52;;;14.23;;
22557;SDS011;11445;53.816;8.902;2022-11-15T12:09:43;19.55;;;13.32;;
22557;SDS011;11445;53.816;8.902;2022-11-15T12:14:45;22.08;;;13.27;;
22557;SDS011;11445;53.816;8.902;2022-11-15T12:17:19;20.85;;;13.18;;
22557;SDS011;11445;53.816;8.902;2022-11-15T12:19:49;22.97;;;12.60;;
22557;SDS011;11445;53.816;8.902;2022-11-15T12:22:18;21.75;;;13.02;;
22557;SDS011;11445;53.816;8.902;2022-11-15T12:24:50;21.58;;;13.38;;
22557;SDS011;11445;53.816;8.902;2022-11-15T12:27:24;23.63;;;12.70;;
22557;SDS011;11445;53.816;8.902;2022-11-15T12:30:00;25.65;;;13.57;;
22557;SDS011;11445;53.816;8.902;2022-11-15T12:32:32;22.30;;;13.02;;
22557;SDS011;11445;53.816;8.902;2022-11-15T12:35:02;21.63;;;13.73;;
22557;SDS011;11445;53.816;8.902;2022-11-15T12:40:25;23.85;;;12.43;;
22557;SDS011;11445;53.816;8.902;2022-11-15T12:46:01;21.85;;;12.55;;
22557;SDS011;11445;53.816;8.902;2022-11-15T12:54:49;18.42;;;12.05;;
22557;SDS011;11445;53.816;8.902;2022-11-15T12:57:25;21.40;;;11.75;;
22557;SDS011;11445;53.816;8.902;2022-11-15T12:59:58;20.17;;;11.90;;
22557;SDS011;11445;53.816;8.902;2022-11-15T13:02:29;19.05;;;11.30;;
22557;SDS011;11445;53.816;8.902;2022-11-15T13:08:11;16.70;;;11.27;;
22557;SDS011;11445;53.816;8.902;2022-11-15T13:17:31;18.92;;;11.63;;
22557;SDS011;11445;53.816;8.902;2022-11-15T13:20:21;18.05;;;11.80;;
22557;SDS011;11445;53.816;8.902;2022-11-15T13:22:52;17.02;;;11.38;;
22557;SDS011;11445;53.816;8.902;2022-11-15T13:25:30;17.60;;;11.02;;
22557;SDS011;11445;53.816;8.902;2022-11-15T13:28:22;16.25;;;11.55;;
22557;SDS011;11445;53.816;8.902;2022-11-15T13:33:24;27.05;;;11.00;;
22557;SDS011;11445;53.816;8.902;2022-11-15T13:38:26;18.52;;;11.05;;
22557;SDS011;11445;53.816;8.902;2022-11-15T13:40:55;16.08;;;11.02;;
22557;SDS011;11445;53.816;8.902;2022-11-15T13:43:26;18.25;;;11.43;;
22557;SDS011;11445;53.816;8.902;2022-11-15T13:46:07;19.02;;;10.88;;
22557;SDS011;11445;53.816;8.902;2022-11-15T13:48:39;17.45;;;11.82;;
22557;SDS011;11445;53.816;8.902;2022-11-15T13:51:10;16.15;;;11.18;;
22557;SDS011;11445;53.816;8.902;2022-11-15T13:53:43;18.13;;;11.50;;
22557;SDS011;11445;53.816;8.902;2022-11-15T13:56:13;19.10;;;11.15;;
22557;SDS011;11445;53.816;8.902;2022-11-15T13:58:42;18.33;;;10.88;;
22557;SDS011;11445;53.816;8.902;2022-11-15T14:01:13;17.35;;;11.73;;
22557;SDS011;11445;53.816;8.902;2022-11-15T14:03:46;21.95;;;12.23;;
22557;SDS011;11445;53.816;8.902;2022-11-15T14:06:21;17.38;;;11.77;;
22557;SDS011;11445;53.816;8.902;2022-11-15T14:09:04;19.48;;;11.55;;
22557;SDS011;11445;53.816;8.902;2022-11-15T14:12:01;21.63;;;12.70;;
22557;SDS011;11445;53.816;8.902;2022-11-15T14:14:47;21.05;;;13.02;;
22557;SDS011;11445;53.816;8.902;2022-11-15T14:17:19;16.20;;;11.93;;
22557;SDS011;11445;53.816;8.902;2022-11-15T14:19:48;19.35;;;12.32;;
22557;SDS011;11445;53.816;8.902;2022-11-15T14:22:21;19.55;;;12.52;;
22557;SDS011;11445;53.816;8.902;2022-11-15T14:25:04;24.80;;;12.52;;
22557;SDS011;11445;53.816;8.902;2022-11-15T14:27:33;26.15;;;12.10;;
22557;SDS011;11445;53.816;8.902;2022-11-15T14:30:01;24.58;;;13.25;;
22557;SDS011;11445;53.816;8.902;2022-11-15T14:32:29;18.15;;;11.90;;
22557;SDS011;11445;53.816;8.902;2022-11-15T14:35:08;19.80;;;12.15;;
22557;SDS011;11445;53.816;8.902;2022-11-15T14:37:41;23.50;;;12.20;;
22557;SDS011;11445;53.816;8.902;2022-11-15T14:40:12;18.80;;;10.68;;
22557;SDS011;11445;53.816;8.902;2022-11-15T14:42:41;16.02;;;9.98;;
22557;SDS011;11445;53.816;8.902;2022-11-15T14:45:10;17.92;;;10.00;;
22557;SDS011;11445;53.816;8.902;2022-11-15T14:47:39;22.80;;;11.15;;
22557;SDS011;11445;53.816;8.902;2022-11-15T14:50:10;15.68;;;10.75;;
22557;SDS011;11445;53.816;8.902;2022-11-15T14:52:38;17.40;;;10.73;;
22557;SDS011;11445;53.816;8.902;2022-11-15T14:55:11;20.77;;;11.23;;
22557;SDS011;11445;53.816;8.902;2022-11-15T14:57:44;17.63;;;10.82;;
22557;SDS011;11445;53.816;8.902;2022-11-15T15:00:12;17.95;;;11.23;;
22557;SDS011;11445;53.816;8.902;2022-11-15T15:02:40;20.35;;;10.68;;
22557;SDS011;11445;53.816;8.902;2022-11-15T15:05:15;17.38;;;10.63;;
22557;SDS011;11445;53.816;8.902;2022-11-15T15:07:43;16.88;;;11.32;;
22557;SDS011;11445;53.816;8.902;2022-11-15T15:10:12;16.27;;;10.65;;
22557;SDS011;11445;53.816;8.902;2022-11-15T15:12:41;19.27;;;11.48;;
22557;SDS011;11445;53.816;8.902;2022-11-15T15:15:11;25.98;;;11.40;;
22557;SDS011;11445;53.816;8.902;2022-11-15T15:17:40;15.82;;;10.98;;
22557;SDS011;11445;53.816;8.902;2022-11-15T15:20:07;17.45;;;11.13;;
22557;SDS011;11445;53.816;8.902;2022-11-15T15:22:35;20.73;;;10.65;;
22557;SDS011;11445;53.816;8.902;2022-11-15T15:25:07;17.67;;;11.50;;
22557;SDS011;11445;53.816;8.902;2022-11-15T15:27:46;19.73;;;11.13;;
22557;SDS011;11445;53.816;8.902;2022-11-15T15:30:14;19.58;;;12.07;;
22557;SDS011;11445;53.816;8.902;2022-11-15T15:32:41;18.30;;;11.57;;
22557;SDS011;11445;53.816;8.902;2022-11-15T15:35:10;18.83;;;11.68;;
22557;SDS011;11445;53.816;8.902;2022-11-15T15:37:38;17.38;;;11.35;;